Nearby METAR Reports

 

KBUF - Buffalo/Cheektow, New York, USA
Distance from station: ENE 2mi, 3km
Updated: 09/19/2017 11:54am
Mostly cloudy
Mostly cloudy
 Wind from S
Wind: S 3 mph , 6 km/h
Temperature: 77°F , 25°C
Dew Point: 63°F , 17°C
Humidity: 61%
Barometer: 30.04 inHg , 1017.3 hPa
Clouds: Mostly cloudy
Visibility: 10 miles , 16 km
Cloud details: Few Clouds 2800 ft
Few Clouds 6000 ft
Few Clouds 11000 ft
Few Clouds 18000 ft
Mostly cloudy 26000 ft
2017/09/19 15:54 KBUF 191554Z 18003KT 10SM FEW028 FEW060 FEW110 FEW180 BKN260 25/17 A3004 RMK AO2 SLP169 ACC DSNT NW T02500172
KIAG - Niagara Falls, New York, USA
Distance from station: NNW 16mi, 25km
Updated: 09/19/2017 12:53pm
Clear
Clear
 Wind from varies
Wind: varies 5 mph , 7 km/h
Temperature: 81°F , 27°C
Heat Index: 83°F , 28°C
Dew Point: 64°F , 18°C
Humidity: 58%
Barometer: 30.02 inHg , 1016.6 hPa
Clouds: Clear
Visibility: 10 miles , 16 km
2017/09/19 16:53 KIAG 191653Z VRB04KT 10SM CLR 27/18 A3002 RMK AO2 SLP161 T02670183
 
CYSN - St. Catharines A, Ontario, Canada
Distance from station: NW 28mi, 45km
Updated: 09/19/2017 12:00pm
Overcast
Overcast
 Wind from N
Wind: N 7 mph , 11 km/h
Temperature: 75°F , 24°C
Dew Point: 70°F , 21°C
Humidity: 83%
Barometer: 30.02 inHg , 1016.6 hPa
Clouds: Overcast
Visibility: 8 miles , 13 km
Cloud details: Partly cloudy 2300 ft
Overcast 20000 ft
2017/09/19 16:00 CYSN 191600Z 35006KT 8SM SCT023 OVC200 24/21 A3002 RMK CU3CI5 VIS LWR W- NE HZ SLP166 DENSITY ALT 1400FT
CWWZ - Port Weller (mar, Ontario, Canada
Distance from station: NW 32mi, 51km
Updated: 09/19/2017 12:00pm

 Wind from N
Wind: N 5 mph , 7 km/h
Temperature: 72°F , 22°C
Dew Point: 66°F , 19°C
Humidity: 83%
2017/09/19 16:00 CWWZ 191600Z AUTO 35004KT 22/19 RMK AO1 SLP168 T02180190 50001
 
CXVN - Vineland (au8), Ontario, Canada
Distance from station: WNW 37mi, 59km
Updated: 09/19/2017 12:00pm

 Wind from NNW
Wind: NNW 6 mph , 9 km/h
Temperature: 70°F , 21°C
Dew Point: 68°F , 20°C
Humidity: 94%
2017/09/19 16:00 CXVN 191600Z AUTO 34005KT 21/20 RMK AO1 SLP160 T02120195 50002
KDKK - Dunkirk, New York, USA
Distance from station: SW 39mi, 63km
Updated: 09/19/2017 12:53pm
Clear
Clear
 Wind from NNW
Wind: NNW 7 mph , 11 km/h
Temperature: 75°F , 24°C
Dew Point: 66°F , 19°C
Humidity: 74%
Barometer: 30.03 inHg , 1016.9 hPa
Clouds: Clear
Visibility: 10 miles , 16 km
2017/09/19 16:53 KDKK 191653Z AUTO 34006KT 10SM CLR 24/19 A3003 RMK AO2 SLP165 T02440194
 
KOLE - Olean, New York, USA
Distance from station: SSE 52mi, 83km
Updated: 09/19/2017 12:55pm
Clear
Clear
 Wind from S
Wind: S 3 mph , 6 km/h
Temperature: 70°F , 21°C
Dew Point: 61°F , 16°C
Humidity: 73%
Barometer: 30.09 inHg , 1019 hPa
Clouds: Clear
Visibility: 10 miles , 16 km
2017/09/19 16:55 KOLE 191655Z AUTO 17003KT 10SM CLR 21/16 A3009 RMK AO2
KROC - Rochester, New York, USA
Distance from station: ENE 56mi, 91km
Updated: 09/19/2017 12:54pm
Partly cloudy
Partly cloudy
 Wind from SW
Wind: SW 6 mph , 9 km/h
Temperature: 79°F , 26°C
Dew Point: 64°F , 18°C
Humidity: 61%
Barometer: 30.03 inHg , 1016.9 hPa
Clouds: Partly cloudy
Visibility: 10 miles , 16 km
Cloud details: Few Clouds 4000 ft
Partly cloudy 20000 ft
2017/09/19 16:54 KROC 191654Z 23005KT 10SM FEW040 SCT200 26/18 A3003 RMK AO2 SLP170 T02610183
 
CWWB - Burlington Piers, Ontario, Canada
Distance from station: WNW 57mi, 92km
Updated: 09/19/2017 12:00pm

 Wind from E
Wind: E 6 mph , 9 km/h
Temperature: 70°F , 21°C
Dew Point: 66°F , 19°C
Humidity: 88%
2017/09/19 16:00 CWWB 191600Z AUTO 09005KT 21/19 RMK AO1 SLP171 T02060189 53001
CYTZ - Toronto Il Vor, Ontario, Canada
Distance from station: NNW 58mi, 94km
Updated: 09/19/2017 12:00pm
Mostly cloudy
Mostly cloudy
 Wind from E
Wind: E 9 mph , 15 km/h
Temperature: 72°F , 22°C
Dew Point: 68°F , 20°C
Humidity: 88%
Barometer: 30.03 inHg , 1016.9 hPa
Clouds: Mostly cloudy
Visibility: 9 miles , 14 km
Cloud details: Mostly cloudy 3500 ft
2017/09/19 16:00 CYTZ 191600Z AUTO 09008KT 9SM BKN035 22/20 A3003 RMK SLP172 DENSITY ALT 1000FT
 
KDSV - Dansville, New York, USA
Distance from station: ESE 59mi, 95km
Updated: 09/19/2017 12:54pm
Clear
Clear
 Wind from S
Wind: S 6 mph , 9 km/h
Temperature: 77°F , 25°C
Dew Point: 61°F , 16°C
Humidity: 57%
Barometer: 30.05 inHg , 1017.6 hPa
Clouds: Clear
Visibility: 10 miles , 16 km
2017/09/19 16:54 KDSV 191654Z AUTO 17005KT 10SM CLR 25/16 A3005 RMK AO2 SLP179 T02500161
CXTO - Toronto City, Ontario, Canada
Distance from station: NNW 60mi, 97km
Updated: 09/19/2017 12:00pm

 
Temperature: 75°F , 24°C
Dew Point: 64°F , 18°C
Humidity: 69%
2017/09/19 16:00 CXTO 191600Z AUTO 24/18 RMK AO1 SLP172 T02440182 52002
 
KJHW - Jamestown, New York, USA
Distance from station: SSW 60mi, 97km
Updated: 09/19/2017 12:56pm
Clear
Clear
 Wind from SSW
Wind: SSW 6 mph , 9 km/h
Temperature: 72°F , 22°C
Dew Point: 63°F , 17°C
Humidity: 73%
Barometer: 30.08 inHg , 1018.6 hPa
Clouds: Clear
Visibility: 10 miles , 16 km
2017/09/19 16:56 KJHW 191656Z AUTO 21005KT 10SM CLR 22/17 A3008 RMK AO2 SLP181 T02220167
CYHM - Hamilton Airport, Ontario, Canada
Distance from station: WNW 61mi, 98km
Updated: 09/19/2017 12:20pm
Mostly cloudy
Mostly cloudy
 Wind from E
Wind: E 6 mph , 9 km/h
Temperature: 72°F , 22°C
Dew Point: 68°F , 20°C
Humidity: 88%
Barometer: 30.04 inHg , 1017.3 hPa
Clouds: Mostly cloudy
Visibility: 10 miles , 16 km
Cloud details: Few Clouds 1000 ft
Partly cloudy 1400 ft
Mostly cloudy 1800 ft
Mostly cloudy 12000 ft
2017/09/19 16:20 CYHM 191620Z 08005KT 050V120 10SM FEW010 SCT014 BKN018 BKN120 22/20 A3004 RMK CF1SC2SC2AC1 SLP173 DENSITY ALT 1700FT
 
CXHM - Hamilton Rbg Cs, Ontario, Canada
Distance from station: WNW 62mi, 100km
Updated: 09/19/2017 12:00pm

 Wind from E
Wind: E 5 mph , 7 km/h
Temperature: 73°F , 23°C
Dew Point: 68°F , 20°C
Humidity: 83%
2017/09/19 16:00 CXHM 191600Z AUTO 10004KT 23/20 RMK AO1 SLP163 T02250198 53001
CYYZ - Toronto/Pearson, Ontario, Canada
Distance from station: NW 67mi, 107km
Updated: 09/19/2017 12:35pm
Mostly cloudy
Mostly cloudy
 Wind from SSE
Wind: SSE 8 mph , 13 km/h
Temperature: 77°F , 25°C
Dew Point: 68°F , 20°C
Humidity: 74%
Barometer: 30.03 inHg , 1016.9 hPa
Clouds: Mostly cloudy
Visibility: 10 miles , 16 km
Cloud details: Mostly cloudy 2200 ft
Mostly cloudy 3000 ft
Mostly cloudy 14000 ft
2017/09/19 16:35 CYYZ 191635Z 16007KT 110V180 10SM BKN022 BKN030 BKN140 25/20 A3003 RMK CU5SC1AC1 WSHFT 1623 SLP168 DENSITY ALT 1800FT
 
CWPS - Long Point (maps, Ontario, Canada
Distance from station: WSW 69mi, 111km
Updated: 09/19/2017 12:00pm

 Wind from E
Wind: E 1 mph , 2 km/h
Temperature: 75°F , 24°C
Dew Point: 66°F , 19°C
Humidity: 74%
2017/09/19 16:00 CWPS 191600Z AUTO 08001KT 24/19 RMK AO1 SLP162 T02390186 50003
CYOO - Oshawa, Ontario, Canada
Distance from station: N 69mi, 111km
Updated: 09/19/2017 12:00pm
Partly cloudy
Partly cloudy
 Wind from varies
Wind: varies 2 mph , 4 km/h
Temperature: 75°F , 24°C
Dew Point: 66°F , 19°C
Humidity: 74%
Barometer: 30.03 inHg , 1016.9 hPa
Clouds: Partly cloudy
Visibility: 9 miles , 14 km
Cloud details: Partly cloudy 4400 ft
2017/09/19 16:00 CYOO 191600Z AUTO VRB02KT 9SM SCT044 24/19 A3003 RMK SLP171 DENSITY ALT 1400FT
 
KELZ - Wellsville, New York, USA
Distance from station: SE 70mi, 112km
Updated: 09/19/2017 11:56am
Clear
Clear
 Wind from varies
Wind: varies 5 mph , 7 km/h
Temperature: 73°F , 23°C
Dew Point: 57°F , 14°C
Humidity: 57%
Barometer: 30.12 inHg , 1020 hPa
Clouds: Clear
Visibility: 10 miles , 16 km
2017/09/19 15:56 KELZ 191556Z AUTO VRB04KT 10SM CLR 23/14 A3012 RMK AO2 SLP186 T02280139
CYKZ - Toronto Buttonvi, Ontario, Canada
Distance from station: NNW 72mi, 116km
Updated: 09/19/2017 12:00pm
Mostly cloudy
Mostly cloudy
 Wind from E
Wind: E 6 mph , 9 km/h
Temperature: 77°F , 25°C
Dew Point: 66°F , 19°C
Humidity: 69%
Barometer: 30.04 inHg , 1017.3 hPa
Clouds: Mostly cloudy
Visibility: 15 miles , 24 km
Cloud details: Mostly cloudy 2500 ft
Mostly cloudy 3700 ft
Mostly cloudy 12000 ft
2017/09/19 16:00 CYKZ 191600Z 08005KT 040V140 15SM BKN025 BKN037 BKN120 25/19 A3004 RMK CU5SC2AC1 AC TR SLP171 DENSITY ALT 1800FT